Report METAR

 

LIML - Milano/Linate, Italy
Distance from station: NO 27km
Dati ricevuti: 08/04/2020 16:50
Sereno
Sereno
 Vento da SSE
Vento: SSE 7 km/h
Temperatura: 22°C
P.to Rugiada: -2°C
Umidità: 20%
Barometro: 1024 hPa
Summary: Sereno
Visibility: superiore a 10 km
2020/04/08 14:50 LIML 081450Z 16004KT 110V230 CAVOK 22/M02 Q1024 NOSIG
LIME - Bergamo/Orio Ser, Italy
Distance from station: NNE 43km
Dati ricevuti: 08/04/2020 16:50
Sereno
Sereno
 Vento da SO
Vento: SO 11 km/h
Temperatura: 21°C
P.to Rugiada: -3°C
Umidità: 20%
Barometro: 1025 hPa
Summary: Sereno
Visibility: superiore a 10 km
2020/04/08 14:50 LIME 081450Z 22006KT CAVOK 21/M03 Q1025 NOSIG
 
LIMS - Piacenza, it-Afb, Italy
Distance from station: SSE 45km
Dati ricevuti: 08/04/2020 16:55
Sereno
Sereno
 Vento da ESE
Vento: ESE 17 km/h
Temperatura: 22°C
P.to Rugiada: -6°C
Umidità: 15%
Barometro: 1024 hPa
Summary: Sereno
Visibility: superiore a 10 km
2020/04/08 14:55 LIMS 081455Z 11009KT CAVOK 22/M06 Q1024
LIPO - Brescia/Montichi, Italy
Distance from station: ENE 65km
Dati ricevuti: 08/04/2020 01:50
DATI Obsoleti
Sereno
Sereno
 Vento da ENE
Vento: ENE 6 km/h
Temperatura: 10°C
P.to Rugiada: -1°C
Umidità: 47%
Barometro: 1029 hPa
Summary: Sereno
Visibility: superiore a 10 km
2020/04/07 23:50 LIPO 072350Z 06003KT CAVOK 10/M01 Q1029